createdAt,value
2018-07-24T00:01:52.505Z,3.87
2018-07-24T00:04:19.971Z,4.10
2018-07-24T00:06:47.380Z,4.13
2018-07-24T00:09:14.787Z,4.27
2018-07-24T00:11:42.227Z,3.83
2018-07-24T00:14:09.663Z,4.10
2018-07-24T00:16:37.071Z,4.63
2018-07-24T00:19:04.571Z,3.97
2018-07-24T00:21:32.050Z,4.13
2018-07-24T00:23:59.483Z,4.07
2018-07-24T00:26:26.925Z,4.27
2018-07-24T00:28:54.332Z,3.67
2018-07-24T00:31:21.770Z,4.40
2018-07-24T00:33:49.220Z,4.20
2018-07-24T00:36:16.667Z,4.50
2018-07-24T00:38:44.124Z,4.70
2018-07-24T00:41:11.707Z,4.60
2018-07-24T00:43:39.131Z,4.60
2018-07-24T00:46:06.541Z,4.30
2018-07-24T00:48:33.970Z,3.93
2018-07-24T00:51:01.374Z,4.33
2018-07-24T00:53:28.798Z,4.43
2018-07-24T00:55:56.266Z,4.30
2018-07-24T00:58:23.663Z,4.20
2018-07-24T01:00:51.110Z,4.63
2018-07-24T01:03:18.579Z,4.37
2018-07-24T01:05:45.991Z,4.30
2018-07-24T01:08:13.431Z,4.40
2018-07-24T01:10:40.943Z,4.07
2018-07-24T01:13:08.479Z,4.57
2018-07-24T01:15:35.874Z,4.63
2018-07-24T01:18:03.553Z,4.77
2018-07-24T01:20:31.799Z,4.67
2018-07-24T01:22:59.698Z,4.70
2018-07-24T01:25:27.123Z,4.70
2018-07-24T01:27:54.507Z,4.67
2018-07-24T01:30:21.940Z,4.50
2018-07-24T01:32:49.366Z,4.67
2018-07-24T01:35:16.793Z,4.60
2018-07-24T01:37:44.222Z,4.73
2018-07-24T01:40:12.512Z,4.97
2018-07-24T01:42:39.891Z,5.00
2018-07-24T01:45:07.300Z,4.70
2018-07-24T01:47:34.810Z,5.00
2018-07-24T01:50:02.236Z,4.40
2018-07-24T01:52:29.630Z,4.60
2018-07-24T01:54:57.091Z,4.87
2018-07-24T01:57:24.508Z,4.13
2018-07-24T01:59:51.907Z,4.60
2018-07-24T02:02:19.319Z,4.50
2018-07-24T02:04:46.803Z,4.97
2018-07-24T02:07:14.219Z,5.30
2018-07-24T02:09:41.671Z,4.90
2018-07-24T02:12:09.106Z,5.43
2018-07-24T02:14:36.553Z,5.07
2018-07-24T02:17:04.030Z,4.93
2018-07-24T02:19:31.484Z,4.80
2018-07-24T02:21:58.917Z,4.93
2018-07-24T02:24:26.347Z,4.87
2018-07-24T02:26:53.735Z,5.33
2018-07-24T02:29:21.127Z,4.87
2018-07-24T02:31:48.629Z,5.40
2018-07-24T02:34:16.036Z,4.77
2018-07-24T02:36:43.503Z,4.90
2018-07-24T02:39:13.041Z,5.20
2018-07-24T02:41:40.500Z,4.80
2018-07-24T02:44:08.001Z,4.80
2018-07-24T02:46:35.583Z,4.90
2018-07-24T02:49:03.035Z,5.13
2018-07-24T02:51:30.723Z,5.00
2018-07-24T02:53:58.219Z,5.00
2018-07-24T02:56:25.616Z,5.07
2018-07-24T02:58:53.007Z,5.17
2018-07-24T03:01:20.435Z,4.63
2018-07-24T03:03:47.864Z,5.20
2018-07-24T03:06:15.279Z,5.23
2018-07-24T03:08:42.792Z,4.67
2018-07-24T03:11:10.230Z,5.77
2018-07-24T03:13:37.720Z,4.97
2018-07-24T03:16:05.252Z,4.67
2018-07-24T03:18:32.692Z,5.10
2018-07-24T03:21:00.096Z,5.07
2018-07-24T03:23:27.523Z,5.87
2018-07-24T03:25:54.914Z,5.57
2018-07-24T03:28:22.358Z,5.27
2018-07-24T03:30:49.796Z,5.07
2018-07-24T03:33:17.193Z,4.70
2018-07-24T03:35:44.719Z,4.63
2018-07-24T03:38:12.120Z,5.03
2018-07-24T03:40:39.498Z,4.97
2018-07-24T03:43:06.956Z,5.40
2018-07-24T03:45:34.345Z,4.80
2018-07-24T03:48:01.749Z,4.90
2018-07-24T03:50:29.199Z,5.03
2018-07-24T03:52:56.611Z,5.07
2018-07-24T03:55:24.031Z,4.90
2018-07-24T03:57:51.492Z,4.80
2018-07-24T04:00:18.906Z,4.73
2018-07-24T04:02:46.341Z,5.67
2018-07-24T04:05:13.791Z,5.23
2018-07-24T04:07:41.204Z,5.27
2018-07-24T04:10:08.634Z,5.00
2018-07-24T04:12:36.081Z,5.13
2018-07-24T04:15:03.603Z,5.27
2018-07-24T04:17:31.015Z,5.27
2018-07-24T04:19:58.468Z,4.63
2018-07-24T04:22:25.939Z,4.70
2018-07-24T04:24:53.340Z,4.70
2018-07-24T04:27:20.791Z,4.87
2018-07-24T04:29:48.193Z,4.67
2018-07-24T04:32:15.610Z,5.00
2018-07-24T04:34:43.056Z,4.73
2018-07-24T04:37:10.480Z,4.20
2018-07-24T04:39:37.879Z,4.47
2018-07-24T04:42:05.351Z,4.20
2018-07-24T04:44:32.746Z,4.13
2018-07-24T04:47:00.171Z,4.27
2018-07-24T04:49:27.639Z,4.23
2018-07-24T04:51:55.044Z,4.50
2018-07-24T04:54:22.455Z,4.27
2018-07-24T04:56:49.891Z,4.07
2018-07-24T04:59:17.315Z,4.30
2018-07-24T05:01:44.731Z,4.67
2018-07-24T05:04:12.162Z,3.77
2018-07-24T05:06:39.599Z,4.27
2018-07-24T05:09:09.167Z,4.10
2018-07-24T05:11:36.643Z,4.07
2018-07-24T05:14:04.080Z,4.07
2018-07-24T05:16:31.489Z,4.20
2018-07-24T05:18:58.950Z,4.40
2018-07-24T05:21:26.377Z,4.10
2018-07-24T05:23:53.821Z,3.97
2018-07-24T05:26:21.255Z,4.67
2018-07-24T05:28:48.731Z,4.03
2018-07-24T05:31:16.143Z,3.97
2018-07-24T05:33:43.615Z,4.10
2018-07-24T05:36:11.016Z,3.90
2018-07-24T05:38:38.467Z,4.50
2018-07-24T05:41:06.016Z,3.90
2018-07-24T05:43:33.427Z,4.07
2018-07-24T05:46:00.856Z,3.87
2018-07-24T05:48:28.348Z,3.70
2018-07-24T05:50:56.486Z,3.80
2018-07-24T05:53:23.923Z,4.20
2018-07-24T05:55:51.349Z,4.00
2018-07-24T05:58:18.827Z,4.10
2018-07-24T06:00:46.299Z,3.87
2018-07-24T06:03:13.719Z,3.73
2018-07-24T06:05:41.123Z,3.80
2018-07-24T06:08:08.532Z,4.13
2018-07-24T06:10:35.983Z,3.53
2018-07-24T06:13:03.536Z,3.73
2018-07-24T06:15:30.936Z,3.30
2018-07-24T06:17:58.415Z,3.58
2018-07-24T06:20:25.829Z,3.42
2018-07-24T06:22:53.244Z,3.70
2018-07-24T06:25:20.691Z,3.62
2018-07-24T06:27:48.095Z,3.50
2018-07-24T06:30:15.553Z,3.60
2018-07-24T06:32:43.058Z,3.77
2018-07-24T06:35:10.485Z,3.60
2018-07-24T06:37:37.936Z,3.60
2018-07-24T06:40:05.392Z,3.60
2018-07-24T06:42:32.842Z,3.58
2018-07-24T06:45:00.271Z,3.52
2018-07-24T06:47:27.721Z,3.62
2018-07-24T06:49:55.143Z,3.27
2018-07-24T06:52:22.576Z,3.50
2018-07-24T06:54:50.037Z,3.65
2018-07-24T06:57:17.485Z,3.85
2018-07-24T06:59:44.900Z,3.75
2018-07-24T07:02:12.473Z,3.60
2018-07-24T07:04:39.884Z,3.85
2018-07-24T07:07:07.320Z,3.80
2018-07-24T07:09:34.796Z,3.40
2018-07-24T07:12:02.235Z,3.50
2018-07-24T07:14:29.632Z,3.60
2018-07-24T07:16:58.020Z,3.50
2018-07-24T07:19:25.724Z,3.55
2018-07-24T07:21:53.889Z,4.17
2018-07-24T07:24:21.738Z,3.92
2018-07-24T07:26:51.605Z,3.62
2018-07-24T07:29:19.406Z,3.80
2018-07-24T07:31:47.269Z,4.10
2018-07-24T07:34:14.691Z,3.70
2018-07-24T07:36:42.127Z,3.77
2018-07-24T07:39:10.754Z,3.40
2018-07-24T07:41:38.449Z,3.30
2018-07-24T07:44:05.886Z,3.40
2018-07-24T07:46:33.309Z,3.52
2018-07-24T07:49:00.827Z,3.87
2018-07-24T07:51:28.312Z,3.85
2018-07-24T07:53:55.804Z,3.62
2018-07-24T07:56:23.247Z,3.72
2018-07-24T07:58:50.664Z,3.70
2018-07-24T08:01:18.267Z,3.47
2018-07-24T08:03:45.660Z,3.65
2018-07-24T08:06:13.049Z,3.70
2018-07-24T08:08:40.633Z,3.90
2018-07-24T08:11:08.035Z,3.47
2018-07-24T08:13:35.448Z,3.52
2018-07-24T08:16:02.892Z,4.10
2018-07-24T08:18:30.383Z,3.70
2018-07-24T08:20:57.788Z,3.47
2018-07-24T08:23:25.246Z,3.58
2018-07-24T08:25:52.647Z,3.45
2018-07-24T08:28:20.081Z,3.67
2018-07-24T08:30:47.520Z,3.67
2018-07-24T08:33:14.965Z,3.70
2018-07-24T08:35:42.375Z,3.62
2018-07-24T08:38:09.846Z,3.27
2018-07-24T08:40:37.264Z,3.47
2018-07-24T08:43:04.683Z,3.50
2018-07-24T08:45:32.091Z,3.60
2018-07-24T08:47:59.666Z,2.95
2018-07-24T08:50:27.154Z,3.10
2018-07-24T08:52:54.762Z,3.35
2018-07-24T08:55:22.579Z,3.35
2018-07-24T08:57:49.603Z,3.30
2018-07-24T09:00:17.040Z,3.22
2018-07-24T09:02:44.451Z,3.08
2018-07-24T09:05:11.856Z,3.58
2018-07-24T09:07:39.335Z,3.40
2018-07-24T09:10:06.831Z,3.42
2018-07-24T09:12:34.207Z,3.10
2018-07-24T09:15:01.689Z,3.50
2018-07-24T09:17:29.087Z,3.00
2018-07-24T09:19:56.484Z,3.83
2018-07-24T09:22:23.929Z,3.47
2018-07-24T09:24:51.315Z,3.55
2018-07-24T09:27:18.713Z,3.55
2018-07-24T09:29:46.144Z,3.30
2018-07-24T09:32:13.656Z,3.47
2018-07-24T09:34:41.023Z,3.20
2018-07-24T09:37:08.456Z,3.47
2018-07-24T09:39:35.840Z,3.30
2018-07-24T09:42:03.277Z,3.70
2018-07-24T09:44:30.715Z,3.62
2018-07-24T09:46:58.113Z,3.60
2018-07-24T09:49:25.516Z,3.70
2018-07-24T09:51:53.008Z,3.62
2018-07-24T09:54:20.405Z,3.55
2018-07-24T09:56:47.826Z,3.62
2018-07-24T09:59:15.293Z,3.58
2018-07-24T10:01:42.707Z,3.00
2018-07-24T10:04:10.103Z,3.50
2018-07-24T10:06:37.532Z,3.52
2018-07-24T10:09:06.886Z,3.90
2018-07-24T10:11:34.294Z,3.40
2018-07-24T10:14:01.750Z,3.70
2018-07-24T10:16:29.194Z,3.52
2018-07-24T10:18:56.648Z,3.55
2018-07-24T10:21:24.142Z,3.70
2018-07-24T10:23:51.564Z,3.65
2018-07-24T10:26:18.988Z,3.65
2018-07-24T10:28:46.663Z,3.50
2018-07-24T10:31:14.067Z,3.70
2018-07-24T10:33:41.561Z,3.52
2018-07-24T10:36:09.024Z,3.33
2018-07-24T10:38:36.455Z,3.70
2018-07-24T10:41:03.943Z,3.87
2018-07-24T10:43:31.377Z,3.62
2018-07-24T10:45:59.032Z,3.37
2018-07-24T10:48:26.441Z,3.65
2018-07-24T10:50:53.887Z,3.70
2018-07-24T10:53:21.313Z,3.42
2018-07-24T10:55:48.717Z,3.42
2018-07-24T10:58:16.172Z,3.60
2018-07-24T11:00:43.635Z,3.35
2018-07-24T11:03:11.043Z,3.45
2018-07-24T11:05:38.479Z,3.35
2018-07-24T11:08:06.167Z,3.22
2018-07-24T11:10:33.595Z,3.62
2018-07-24T11:13:01.052Z,3.20
2018-07-24T11:15:28.467Z,2.92
2018-07-24T11:17:55.895Z,3.50
2018-07-24T11:20:23.343Z,3.22
2018-07-24T11:22:50.995Z,3.42
2018-07-24T11:25:18.209Z,3.12
2018-07-24T11:27:45.625Z,3.15
2018-07-24T11:30:13.033Z,3.15
2018-07-24T11:32:40.439Z,3.33
2018-07-24T11:35:07.935Z,3.35
2018-07-24T11:37:35.335Z,3.60
2018-07-24T11:40:02.756Z,3.27
2018-07-24T11:42:30.223Z,3.35
2018-07-24T11:44:57.632Z,3.30
2018-07-24T11:47:25.025Z,3.30
2018-07-24T11:49:52.452Z,3.50
2018-07-24T11:52:19.959Z,3.22
2018-07-24T11:54:47.476Z,3.10
2018-07-24T11:57:14.921Z,2.90
2018-07-24T11:59:42.328Z,3.20
2018-07-24T12:02:09.783Z,3.50
2018-07-24T12:04:37.315Z,2.90
2018-07-24T12:07:04.779Z,3.10
2018-07-24T12:09:32.175Z,2.87
2018-07-24T12:11:59.639Z,3.10
2018-07-24T12:14:27.086Z,3.20
2018-07-24T12:16:54.560Z,3.02
2018-07-24T12:19:22.004Z,2.92
2018-07-24T12:21:49.419Z,3.50
2018-07-24T12:24:16.821Z,3.45
2018-07-24T12:26:44.326Z,3.17
2018-07-24T12:29:11.779Z,3.35
2018-07-24T12:31:39.199Z,3.37
2018-07-24T12:34:06.624Z,3.22
2018-07-24T12:36:34.091Z,3.50
2018-07-24T12:39:01.512Z,3.55
2018-07-24T12:41:28.971Z,3.35
2018-07-24T12:43:56.375Z,3.45
2018-07-24T12:46:23.796Z,3.60
2018-07-24T12:48:51.275Z,3.55
2018-07-24T12:51:18.663Z,3.20
2018-07-24T12:53:46.167Z,3.37
2018-07-24T12:56:13.583Z,3.75
2018-07-24T12:58:40.963Z,3.08
2018-07-24T13:01:08.411Z,3.40
2018-07-24T13:03:35.895Z,3.55
2018-07-24T13:06:03.325Z,3.20
2018-07-24T13:08:30.723Z,3.22
2018-07-24T13:10:58.220Z,3.65
2018-07-24T13:13:25.594Z,3.72
2018-07-24T13:15:53.071Z,3.60
2018-07-24T13:18:20.508Z,3.30
2018-07-24T13:20:47.931Z,3.45
2018-07-24T13:23:15.335Z,3.30
2018-07-24T13:25:42.944Z,3.50
2018-07-24T13:28:10.367Z,3.10
2018-07-24T13:30:37.920Z,3.40
2018-07-24T13:33:05.364Z,3.67
2018-07-24T13:35:32.787Z,3.37
2018-07-24T13:38:00.193Z,3.33
2018-07-24T13:40:27.624Z,3.20
2018-07-24T13:42:55.043Z,3.20
2018-07-24T13:45:22.451Z,3.55
2018-07-24T13:47:49.863Z,3.55
2018-07-24T13:50:17.275Z,3.50
2018-07-24T13:52:44.714Z,3.47
2018-07-24T13:55:12.196Z,3.22
2018-07-24T13:57:39.615Z,3.25
2018-07-24T14:00:07.088Z,3.25
2018-07-24T14:02:34.539Z,3.30
2018-07-24T14:05:02.020Z,3.37
2018-07-24T14:07:29.419Z,3.33
2018-07-24T14:09:56.841Z,3.20
2018-07-24T14:12:24.271Z,3.30
2018-07-24T14:14:51.812Z,3.27
2018-07-24T14:17:19.283Z,2.83
2018-07-24T14:19:46.699Z,3.42
2018-07-24T14:22:14.110Z,3.72
2018-07-24T14:24:41.552Z,3.30
2018-07-24T14:27:08.955Z,3.37
2018-07-24T14:29:36.371Z,3.37
2018-07-24T14:32:03.800Z,3.30
2018-07-24T14:34:31.208Z,3.50
2018-07-24T14:36:58.622Z,3.30
2018-07-24T14:39:26.095Z,3.12
2018-07-24T14:41:53.517Z,3.55
2018-07-24T14:44:20.971Z,3.12
2018-07-24T14:46:48.387Z,3.42
2018-07-24T14:49:15.797Z,3.25
2018-07-24T14:51:43.247Z,3.00
2018-07-24T14:54:10.758Z,3.40
2018-07-24T14:56:38.155Z,3.45
2018-07-24T14:59:05.587Z,3.08
2018-07-24T15:01:33.019Z,2.98
2018-07-24T15:04:00.419Z,3.35
2018-07-24T15:06:28.405Z,3.45
2018-07-24T15:08:55.825Z,3.33
2018-07-24T15:12:52.516Z,3.75
2018-07-24T15:15:19.929Z,3.22
2018-07-24T15:17:47.335Z,3.52
2018-07-24T15:20:14.780Z,3.08
2018-07-24T15:22:42.203Z,3.20
2018-07-24T15:25:09.635Z,3.60
2018-07-24T15:27:37.087Z,3.25
2018-07-24T15:30:05.375Z,3.25
2018-07-24T15:32:32.771Z,3.60
2018-07-24T15:35:00.310Z,3.52
2018-07-24T15:37:27.673Z,3.47
2018-07-24T15:39:55.079Z,3.35
2018-07-24T15:42:22.532Z,3.62
2018-07-24T15:44:49.947Z,3.20
2018-07-24T15:47:17.352Z,3.85
2018-07-24T15:49:44.803Z,3.60
2018-07-24T15:52:12.253Z,3.60
2018-07-24T15:54:39.649Z,3.22
2018-07-24T15:57:07.087Z,3.40
2018-07-24T15:59:34.492Z,3.70
2018-07-24T16:02:01.952Z,3.60
2018-07-24T16:04:29.380Z,3.20
2018-07-24T16:06:56.771Z,3.30
2018-07-24T16:09:24.186Z,3.47
2018-07-24T16:11:51.603Z,3.35
2018-07-24T16:14:19.027Z,3.65
2018-07-24T16:16:46.462Z,3.40
2018-07-24T16:19:13.927Z,3.17
2018-07-24T16:21:41.371Z,3.30
2018-07-24T16:24:08.771Z,3.58
2018-07-24T16:26:36.259Z,3.70
2018-07-24T16:29:03.752Z,3.60
2018-07-24T16:31:31.177Z,3.30
2018-07-24T16:33:58.619Z,3.40
2018-07-24T16:36:26.035Z,3.30
2018-07-24T16:38:53.456Z,3.30
2018-07-24T16:41:20.941Z,3.62
2018-07-24T16:43:48.369Z,3.22
2018-07-24T16:46:15.784Z,3.47
2018-07-24T16:48:43.207Z,3.45
2018-07-24T16:51:10.619Z,3.65
2018-07-24T16:53:38.057Z,3.20
2018-07-24T16:56:05.553Z,3.40
2018-07-24T16:58:33.029Z,3.33
2018-07-24T17:01:00.480Z,3.45
2018-07-24T17:03:27.947Z,3.10
2018-07-24T17:05:55.353Z,3.42
2018-07-24T17:08:23.253Z,3.42
2018-07-24T17:10:50.671Z,3.30
2018-07-24T17:13:18.071Z,3.15
2018-07-24T17:15:45.501Z,3.05
2018-07-24T17:18:12.935Z,3.12
2018-07-24T17:20:40.343Z,3.15
2018-07-24T17:23:07.801Z,3.30
2018-07-24T17:25:35.252Z,3.40
2018-07-24T17:28:02.664Z,3.20
2018-07-24T17:30:30.045Z,2.92
2018-07-24T17:32:57.591Z,3.20
2018-07-24T17:35:25.031Z,3.37
2018-07-24T17:37:52.445Z,3.15
2018-07-24T17:40:19.875Z,3.50
2018-07-24T17:42:47.309Z,3.30
2018-07-24T17:45:14.736Z,3.55
2018-07-24T17:47:42.174Z,3.20
2018-07-24T17:50:09.588Z,3.47
2018-07-24T17:52:36.995Z,3.37
2018-07-24T17:55:04.489Z,3.20
2018-07-24T17:57:31.923Z,2.95
2018-07-24T17:59:59.403Z,2.87
2018-07-24T18:02:26.832Z,3.42
2018-07-24T18:04:54.343Z,3.50
2018-07-24T18:07:21.773Z,3.70
2018-07-24T18:09:49.243Z,3.52
2018-07-24T18:12:16.651Z,3.22
2018-07-24T18:14:44.095Z,3.42
2018-07-24T18:17:11.898Z,3.52
2018-07-24T18:19:39.298Z,3.22
2018-07-24T18:22:06.717Z,3.90
2018-07-24T18:24:34.151Z,3.35
2018-07-24T18:27:01.576Z,3.70
2018-07-24T18:29:28.977Z,3.60
2018-07-24T18:31:56.423Z,3.80
2018-07-24T18:34:23.839Z,3.13
2018-07-24T18:36:51.247Z,3.58
2018-07-24T18:39:18.667Z,3.97
2018-07-24T18:41:46.063Z,3.33
2018-07-24T18:44:13.461Z,3.50
2018-07-24T18:46:40.903Z,3.43
2018-07-24T18:49:08.327Z,3.60
2018-07-24T18:51:35.715Z,3.30
2018-07-24T18:54:03.152Z,3.23
2018-07-24T18:56:30.579Z,3.60
2018-07-24T18:58:58.003Z,3.80
2018-07-24T19:01:25.448Z,3.70
2018-07-24T19:03:52.857Z,3.43
2018-07-24T19:06:20.252Z,3.60
2018-07-24T19:08:47.691Z,3.50
2018-07-24T19:11:15.108Z,3.63
2018-07-24T19:13:42.544Z,3.60
2018-07-24T19:16:10.024Z,3.60
2018-07-24T19:18:37.515Z,3.60
2018-07-24T19:21:04.924Z,3.53
2018-07-24T19:23:32.367Z,3.80
2018-07-24T19:25:59.783Z,3.43
2018-07-24T19:28:27.177Z,3.53
2018-07-24T19:30:54.674Z,3.90
2018-07-24T19:33:22.088Z,3.90
2018-07-24T19:35:49.511Z,3.73
2018-07-24T19:38:17.131Z,4.03
2018-07-24T19:40:44.567Z,4.07
2018-07-24T19:43:11.996Z,4.33
2018-07-24T19:45:39.423Z,3.80
2018-07-24T19:48:06.835Z,4.30
2018-07-24T19:50:34.231Z,4.13
2018-07-24T19:53:01.675Z,4.00
2018-07-24T19:55:29.123Z,4.00
2018-07-24T19:57:56.536Z,3.77
2018-07-24T20:00:23.980Z,4.20
2018-07-24T20:02:51.395Z,4.50
2018-07-24T20:05:18.860Z,3.93
2018-07-24T20:07:46.287Z,4.00
2018-07-24T20:10:13.772Z,4.30
2018-07-24T20:12:41.181Z,4.80
2018-07-24T20:15:13.060Z,4.37
2018-07-24T20:17:40.468Z,4.60
2018-07-24T20:20:07.871Z,4.27
2018-07-24T20:22:35.306Z,4.50
2018-07-24T20:25:02.715Z,4.23
2018-07-24T20:27:30.108Z,3.90
2018-07-24T20:29:57.539Z,4.10
2018-07-24T20:32:24.947Z,3.77
2018-07-24T20:34:52.375Z,4.33
2018-07-24T20:37:19.822Z,4.23
2018-07-24T20:39:47.219Z,4.00
2018-07-24T20:42:14.637Z,4.07
2018-07-24T20:44:42.130Z,4.60
2018-07-24T20:47:09.595Z,4.00
2018-07-24T20:49:37.016Z,4.07
2018-07-24T20:52:04.439Z,3.90
2018-07-24T20:54:31.967Z,3.67
2018-07-24T20:56:59.377Z,4.07
2018-07-24T20:59:26.815Z,4.20
2018-07-24T21:01:54.241Z,4.23
2018-07-24T21:04:22.079Z,4.27
2018-07-24T21:06:49.551Z,3.80
2018-07-24T21:09:16.939Z,3.73
2018-07-24T21:11:44.367Z,4.00
2018-07-24T21:14:11.833Z,3.93
2018-07-24T21:16:39.231Z,3.80
2018-07-24T21:19:07.241Z,4.13
2018-07-24T21:21:34.747Z,3.50
2018-07-24T21:24:02.866Z,3.70
2018-07-24T21:26:30.804Z,3.70
2018-07-24T21:28:58.363Z,4.30
2018-07-24T21:31:25.864Z,3.70
2018-07-24T21:33:53.991Z,4.13
2018-07-24T21:36:21.426Z,3.67
2018-07-24T21:38:48.859Z,3.97
2018-07-24T21:41:16.275Z,4.20
2018-07-24T21:43:43.784Z,4.07
2018-07-24T21:46:11.252Z,4.13
2018-07-24T21:48:38.680Z,4.07
2018-07-24T21:51:06.135Z,4.17
2018-07-24T21:53:33.623Z,4.10
2018-07-24T21:56:01.016Z,4.10
2018-07-24T21:58:28.477Z,4.83
2018-07-24T22:01:01.323Z,4.03
2018-07-24T22:03:28.739Z,4.23
2018-07-24T22:05:56.191Z,4.00
2018-07-24T22:08:23.615Z,4.30
2018-07-24T22:10:51.038Z,4.37
2018-07-24T22:13:18.511Z,4.40
2018-07-24T22:15:45.928Z,4.40
2018-07-24T22:18:13.406Z,4.27
2018-07-24T22:20:40.836Z,4.60
2018-07-24T22:23:08.243Z,4.73
2018-07-24T22:25:35.663Z,4.67
2018-07-24T22:28:03.094Z,4.50
2018-07-24T22:30:30.519Z,4.47
2018-07-24T22:32:58.583Z,4.50
2018-07-24T22:35:26.016Z,4.73
2018-07-24T22:37:53.419Z,4.63
2018-07-24T22:40:20.863Z,4.73
2018-07-24T22:42:48.356Z,5.07
2018-07-24T22:45:15.777Z,4.87
2018-07-24T22:47:43.183Z,4.70
2018-07-24T22:50:10.642Z,4.53
2018-07-24T22:52:38.062Z,4.57
2018-07-24T22:55:05.492Z,4.50
2018-07-24T22:57:32.967Z,4.27
2018-07-24T23:00:00.377Z,5.17
2018-07-24T23:02:27.782Z,5.00
2018-07-24T23:04:55.219Z,4.70
2018-07-24T23:07:22.631Z,4.63
2018-07-24T23:09:50.075Z,4.70
2018-07-24T23:12:17.553Z,4.70
2018-07-24T23:14:44.975Z,4.50
2018-07-24T23:17:12.424Z,4.93
2018-07-24T23:19:39.856Z,5.27
2018-07-24T23:22:07.292Z,5.00
2018-07-24T23:24:34.704Z,4.97
2018-07-24T23:27:02.187Z,5.70
2018-07-24T23:29:29.627Z,5.03
2018-07-24T23:31:57.042Z,5.17
2018-07-24T23:34:24.496Z,5.57
2018-07-24T23:36:51.911Z,5.63
2018-07-24T23:39:19.351Z,5.80
2018-07-24T23:41:46.803Z,5.57
2018-07-24T23:44:14.235Z,5.93
2018-07-24T23:46:41.731Z,5.80
2018-07-24T23:49:09.191Z,5.80
2018-07-24T23:51:36.679Z,5.23
2018-07-24T23:54:04.094Z,6.13
2018-07-24T23:56:31.565Z,6.13
2018-07-24T23:58:59.015Z,5.77
